Time;durP1;ratioP1;P1;durP2;ratioP2;P2;SDS_P1;SDS_P2;PMS_P1;PMS_P2;Temp;Humidity;BMP_temperature;BMP_pressure;BME280_temperature;BME280_humidity;BME280_pressure;Samples;Min_cycle;Max_cycle;Signal;HPM_P1;HPM_P2
2022/03/14 00:01:37;;;;;;;42.42;6.15;;;19.80;57.50;;;;;;5003971;28;20023;-70
2022/03/14 00:04:04;;;;;;;47.22;5.38;;;19.80;57.40;;;;;;5008967;28;20109;-69
2022/03/14 00:06:31;;;;;;;31.17;3.42;;;19.80;57.00;;;;;;5001957;28;20120;-69
2022/03/14 00:08:57;;;;;;;24.45;3.22;;;19.80;56.80;;;;;;5010464;28;20604;-72
2022/03/14 00:11:26;;;;;;;12.88;2.10;;;19.80;56.60;;;;;;5005420;28;20413;-69
2022/03/14 00:14:32;;;;;;;12.48;1.92;;;19.70;56.70;;;;;;5009691;28;20092;-76
2022/03/14 00:17:40;;;;;;;59.35;4.70;;;19.70;57.10;;;;;;5014358;28;20037;-68
2022/03/14 00:20:48;;;;;;;50.13;6.57;;;19.70;57.20;;;;;;5007187;28;20022;-69
2022/03/14 00:23:54;;;;;;;36.38;4.10;;;19.70;57.10;;;;;;5007368;28;20547;-71
2022/03/14 00:27:01;;;;;;;18.98;3.30;;;19.60;57.30;;;;;;5003646;28;20022;-68
2022/03/14 00:30:07;;;;;;;7.78;2.05;;;19.60;57.30;;;;;;5001983;28;20025;-69
2022/03/14 00:33:13;;;;;;;4.68;1.67;;;19.60;57.10;;;;;;5006632;28;20030;-72
2022/03/14 00:36:20;;;;;;;9.10;3.03;;;19.60;56.90;;;;;;5007708;28;20029;-69
2022/03/14 00:39:26;;;;;;;5.32;2.05;;;19.60;56.80;;;;;;5006728;28;20105;-68
2022/03/14 00:42:32;;;;;;;5.10;2.08;;;19.60;56.70;;;;;;5009987;28;20056;-70
2022/03/14 00:45:38;;;;;;;7.57;1.98;;;19.60;56.90;;;;;;5009110;28;20029;-69
2022/03/14 00:48:44;;;;;;;8.02;1.67;;;19.60;57.10;;;;;;5003570;28;20029;-69
2022/03/14 00:51:50;;;;;;;7.38;2.58;;;19.60;57.10;;;;;;5006135;28;20038;-71
2022/03/14 00:54:56;;;;;;;12.57;2.05;;;19.60;57.20;;;;;;5004958;28;20092;-75
2022/03/14 00:58:02;;;;;;;12.07;1.83;;;19.60;57.10;;;;;;4997550;28;20473;-76
2022/03/14 01:01:08;;;;;;;5.70;2.08;;;19.60;57.10;;;;;;5006012;28;20029;-71
2022/03/14 01:04:14;;;;;;;3.35;1.50;;;19.60;57.10;;;;;;5007049;28;20009;-70
2022/03/14 01:07:20;;;;;;;7.97;1.40;;;19.60;56.90;;;;;;5005400;28;20028;-74
2022/03/14 01:10:06;;;;;;;;;;;19.60;56.70;;;;;;5001795;28;20488;-73
2022/03/14 01:13:12;;;;;;;13.73;1.50;;;19.60;56.60;;;;;;4998670;28;19910;-74
2022/03/14 01:16:18;;;;;;;4.22;1.70;;;19.60;56.60;;;;;;5004715;28;20476;-69
2022/03/14 01:19:24;;;;;;;5.97;1.25;;;19.60;56.40;;;;;;5005932;28;20373;-69
2022/03/14 01:22:31;;;;;;;3.08;1.23;;;19.60;56.30;;;;;;5008531;28;20495;-76
2022/03/14 01:25:37;;;;;;;29.08;2.25;;;19.60;56.30;;;;;;5008076;28;20030;-70
2022/03/14 01:28:43;;;;;;;17.05;3.35;;;19.60;57.00;;;;;;5008150;28;20602;-69
2022/03/14 01:31:29;;;;;;;;;;;19.60;56.90;;;;;;5001312;28;20023;-73
2022/03/14 01:34:35;;;;;;;18.52;2.90;;;19.60;56.60;;;;;;5003070;28;20291;-70
2022/03/14 01:37:42;;;;;;;14.75;2.17;;;19.60;56.60;;;;;;5011737;28;20041;-75
2022/03/14 01:40:48;;;;;;;48.25;4.00;;;19.60;56.10;;;;;;5010087;28;20528;-72
2022/03/14 01:43:55;;;;;;;5.80;1.83;;;19.60;56.30;;;;;;5000898;28;20022;-69
2022/03/14 01:47:01;;;;;;;16.25;2.17;;;19.60;55.70;;;;;;5009140;28;20022;-70
2022/03/14 01:50:07;;;;;;;120.10;9.95;;;19.60;55.60;;;;;;5007106;28;20061;-74
2022/03/14 01:53:14;;;;;;;57.17;13.23;;;19.60;56.30;;;;;;5004242;28;20422;-73
2022/03/14 01:56:20;;;;;;;29.27;12.07;;;19.60;56.70;;;;;;5007377;28;20060;-75
2022/03/14 01:59:28;;;;;;;19.17;6.32;;;19.60;56.80;;;;;;5006931;28;20028;-70
2022/03/14 02:02:35;;;;;;;10.27;3.78;;;19.50;56.70;;;;;;5006659;28;20764;-74
2022/03/14 02:05:41;;;;;;;5.05;1.70;;;19.50;56.90;;;;;;5003694;28;20033;-73
2022/03/14 02:08:47;;;;;;;4.55;1.60;;;19.50;56.90;;;;;;5003159;28;20030;-70
2022/03/14 02:11:54;;;;;;;7.18;2.15;;;19.50;56.80;;;;;;5003031;28;20022;-70
2022/03/14 02:15:00;;;;;;;7.20;1.65;;;19.50;56.70;;;;;;5004249;28;20085;-71
2022/03/14 02:18:09;;;;;;;5.40;1.80;;;19.40;56.80;;;;;;5006457;28;20140;-72
2022/03/14 02:21:15;;;;;;;6.70;2.33;;;19.40;56.80;;;;;;5005799;28;20067;-76
2022/03/14 02:24:21;;;;;;;16.27;2.63;;;19.40;56.80;;;;;;5008344;28;20022;-72
2022/03/14 02:27:28;;;;;;;9.50;2.25;;;19.30;57.00;;;;;;5004281;28;20076;-74
2022/03/14 02:30:34;;;;;;;7.47;1.67;;;19.40;57.10;;;;;;5004330;28;20023;-69
2022/03/14 02:33:40;;;;;;;7.97;2.00;;;19.30;57.00;;;;;;5006929;28;20126;-69
2022/03/14 02:36:46;;;;;;;4.75;1.40;;;19.30;57.20;;;;;;5004744;28;20018;-70
2022/03/14 02:39:52;;;;;;;23.00;2.72;;;19.30;57.40;;;;;;5001163;28;20014;-76
2022/03/14 02:42:58;;;;;;;30.02;2.58;;;19.30;57.60;;;;;;5011779;28;20389;-70
2022/03/14 02:46:04;;;;;;;14.43;2.38;;;19.30;58.00;;;;;;5010075;28;20018;-77
2022/03/14 02:49:10;;;;;;;8.48;2.40;;;19.30;58.20;;;;;;5004969;28;20094;-69
2022/03/14 02:52:16;;;;;;;6.85;1.98;;;19.30;57.80;;;;;;5009292;28;20400;-69
2022/03/14 02:55:23;;;;;;;16.63;2.88;;;19.30;57.50;;;;;;5016955;28;20042;-76
2022/03/14 02:58:32;;;;;;;50.30;4.57;;;19.30;57.30;;;;;;5009458;28;20119;-73
2022/03/14 03:01:39;;;;;;;47.38;5.70;;;19.30;57.20;;;;;;5009456;28;20024;-69
2022/03/14 03:04:45;;;;;;;38.17;4.07;;;19.30;57.20;;;;;;5011934;28;20624;-73
2022/03/14 03:07:54;;;;;;;45.80;4.60;;;19.30;57.00;;;;;;5007623;28;20491;-68
2022/03/14 03:11:00;;;;;;;71.40;7.35;;;19.30;57.20;;;;;;5008469;28;20372;-70
2022/03/14 03:14:06;;;;;;;33.95;5.13;;;19.20;57.50;;;;;;5010248;28;20759;-69
2022/03/14 03:17:12;;;;;;;11.13;2.85;;;19.20;57.40;;;;;;5006204;28;20022;-68
2022/03/14 03:20:18;;;;;;;7.25;2.33;;;19.20;57.40;;;;;;4999686;28;20504;-73
2022/03/14 03:23:25;;;;;;;11.32;3.22;;;19.20;57.50;;;;;;5010131;28;20029;-69
2022/03/14 03:26:31;;;;;;;8.77;3.85;;;19.20;57.70;;;;;;5005522;28;20031;-77
2022/03/14 03:29:37;;;;;;;14.13;4.28;;;19.20;58.00;;;;;;5012022;28;20029;-68
2022/03/14 03:32:43;;;;;;;7.65;3.80;;;19.10;58.00;;;;;;5006008;28;20034;-70
2022/03/14 03:35:49;;;;;;;7.65;3.40;;;19.20;58.00;;;;;;5011411;28;20041;-69
2022/03/14 03:38:56;;;;;;;8.10;2.80;;;19.10;57.90;;;;;;5000835;28;20374;-70
2022/03/14 03:42:02;;;;;;;13.55;4.45;;;19.10;58.00;;;;;;5007829;28;20034;-75
2022/03/14 03:45:09;;;;;;;8.60;2.63;;;19.10;58.00;;;;;;5004411;28;20022;-76
2022/03/14 03:48:15;;;;;;;20.10;4.05;;;19.00;57.90;;;;;;5008011;28;20033;-71
2022/03/14 03:51:21;;;;;;;13.07;1.83;;;19.00;57.80;;;;;;5007164;28;20384;-69
2022/03/14 03:54:27;;;;;;;15.20;2.30;;;19.00;58.00;;;;;;5010091;28;20064;-68
2022/03/14 03:57:35;;;;;;;8.85;1.90;;;19.00;58.00;;;;;;5010061;28;20033;-69
2022/03/14 04:00:41;;;;;;;7.13;2.42;;;18.90;57.90;;;;;;5013005;28;20030;-69
2022/03/14 04:03:27;;;;;;;;;;;18.90;57.80;;;;;;5006231;28;20019;-73
2022/03/14 04:06:34;;;;;;;43.63;4.80;;;18.90;57.80;;;;;;5006252;28;19936;-71
2022/03/14 04:09:06;;;;;;;13.65;2.53;;;18.90;58.10;;;;;;5011318;28;20539;-69
2022/03/14 04:11:33;;;;;;;22.35;2.30;;;18.80;58.50;;;;;;5010332;28;20124;-71
2022/03/14 04:14:01;;;;;;;122.68;10.57;;;18.70;59.20;;;;;;5010420;28;20593;-70
2022/03/14 04:16:29;;;;;;;40.65;4.38;;;18.80;59.60;;;;;;5003965;28;20530;-72
2022/03/14 04:18:56;;;;;;;36.97;24.02;;;18.60;59.60;;;;;;5001638;28;20034;-70
2022/03/14 04:21:23;;;;;;;38.63;18.42;;;18.60;59.60;;;;;;5008252;28;20022;-73
2022/03/14 04:23:49;;;;;;;20.55;10.65;;;18.60;59.60;;;;;;5005187;28;20018;-72
2022/03/14 04:26:16;;;;;;;31.05;6.40;;;18.60;59.40;;;;;;5005777;28;20804;-72
2022/03/14 04:28:43;;;;;;;25.30;4.82;;;18.60;59.60;;;;;;5002040;28;20424;-71
2022/03/14 04:31:10;;;;;;;15.35;3.85;;;18.60;60.00;;;;;;5010140;28;20491;-72
2022/03/14 04:33:36;;;;;;;12.88;2.90;;;18.60;60.10;;;;;;5004934;28;20392;-71
2022/03/14 04:36:04;;;;;;;20.77;3.20;;;18.60;60.00;;;;;;5003611;28;20022;-71
2022/03/14 04:38:31;;;;;;;19.25;6.40;;;18.60;59.90;;;;;;5005963;28;20083;-72
2022/03/14 04:40:57;;;;;;;15.70;11.93;;;18.70;60.00;;;;;;5008652;28;20022;-70
2022/03/14 04:43:24;;;;;;;12.07;7.05;;;18.70;60.00;;;;;;5005188;28;20057;-71
2022/03/14 04:45:51;;;;;;;15.23;4.93;;;18.60;59.70;;;;;;5007124;28;20022;-74
2022/03/14 04:48:20;;;;;;;10.55;3.13;;;18.60;59.60;;;;;;5008328;28;20447;-84
2022/03/14 04:50:47;;;;;;;10.30;2.85;;;18.60;59.60;;;;;;5004856;28;20022;-72
2022/03/14 04:53:13;;;;;;;19.85;3.33;;;18.70;59.70;;;;;;5004780;28;20022;-73
2022/03/14 04:55:42;;;;;;;22.15;3.35;;;18.60;59.80;;;;;;5009822;28;20104;-71
2022/03/14 04:58:14;;;;;;;13.90;3.65;;;18.60;59.80;;;;;;5001717;28;20022;-76
2022/03/14 05:00:41;;;;;;;28.20;4.93;;;18.60;59.80;;;;;;5009921;28;20022;-74
2022/03/14 05:03:09;;;;;;;41.35;4.35;;;18.60;60.00;;;;;;5008011;28;20026;-77
2022/03/14 05:05:36;;;;;;;30.95;3.20;;;18.60;60.10;;;;;;5001909;28;20141;-74
2022/03/14 05:08:03;;;;;;;23.05;4.22;;;18.60;60.40;;;;;;5008760;28;20022;-73
2022/03/14 05:10:30;;;;;;;16.77;3.40;;;18.60;60.60;;;;;;5003668;28;20028;-77
2022/03/14 05:13:00;;;;;;;8.30;3.60;;;18.60;61.00;;;;;;5008667;28;20030;-74
2022/03/14 05:15:26;;;;;;;9.05;3.15;;;18.60;61.10;;;;;;5000179;28;20670;-75
2022/03/14 05:17:54;;;;;;;9.32;2.42;;;18.60;61.30;;;;;;5003934;28;20026;-74
2022/03/14 05:20:20;;;;;;;5.25;2.40;;;18.60;61.40;;;;;;5002513;28;20088;-75
2022/03/14 05:22:48;;;;;;;13.65;3.63;;;18.60;61.60;;;;;;5006589;28;20094;-75
2022/03/14 05:25:17;;;;;;;9.48;2.42;;;18.60;61.60;;;;;;5004376;28;20118;-77
2022/03/14 05:27:43;;;;;;;15.70;2.90;;;18.60;61.90;;;;;;5005668;28;20025;-74
2022/03/14 05:30:10;;;;;;;16.25;2.60;;;18.60;62.20;;;;;;5003736;28;20420;-72
2022/03/14 05:32:39;;;;;;;7.35;2.88;;;18.60;62.30;;;;;;5005777;28;20029;-73
2022/03/14 05:35:07;;;;;;;8.23;2.40;;;18.60;62.80;;;;;;5005430;28;20120;-71
2022/03/14 05:37:34;;;;;;;5.60;2.53;;;18.60;62.80;;;;;;4997417;28;20109;-72
2022/03/14 05:40:00;;;;;;;8.52;2.72;;;18.60;62.80;;;;;;5011140;28;20716;-73
2022/03/14 05:42:27;;;;;;;9.63;3.10;;;18.70;62.70;;;;;;5004766;28;20118;-71
2022/03/14 05:44:54;;;;;;;5.55;2.88;;;18.70;62.70;;;;;;5013938;28;20087;-77
2022/03/14 05:47:20;;;;;;;7.90;3.38;;;18.70;62.60;;;;;;5010175;28;20443;-84
2022/03/14 05:50:26;;;;;;;13.60;2.72;;;18.80;62.50;;;;;;5010640;28;20487;-73
2022/03/14 05:53:33;;;;;;;8.68;2.78;;;18.90;62.60;;;;;;5004037;28;20514;-75
2022/03/14 05:56:39;;;;;;;10.45;3.60;;;18.80;62.40;;;;;;5010774;28;20037;-74
2022/03/14 05:59:45;;;;;;;11.65;3.05;;;18.90;62.10;;;;;;5009921;28;20026;-74
2022/03/14 06:02:52;;;;;;;10.27;2.05;;;19.00;62.10;;;;;;5004724;28;20468;-73
2022/03/14 06:05:19;;;;;;;;;;;19.00;62.10;;;;;;5001175;28;20054;-74
2022/03/14 06:07:45;;;;;;;6.88;2.92;;;19.10;61.60;;;;;;5006257;28;19909;-73
2022/03/14 06:10:15;;;;;;;11.45;2.35;;;19.10;60.60;;;;;;5002357;28;20457;-74
2022/03/14 06:13:21;;;;;;;10.68;2.42;;;19.20;60.20;;;;;;5018939;28;20058;-74
2022/03/14 06:16:27;;;;;;;8.80;2.58;;;19.20;59.80;;;;;;5007060;28;20022;-76
2022/03/14 06:19:33;;;;;;;22.42;3.47;;;19.30;59.70;;;;;;5016939;28;20062;-77
2022/03/14 06:22:39;;;;;;;8.60;2.00;;;19.30;59.40;;;;;;5011284;28;20487;-71
2022/03/14 06:25:45;;;;;;;10.38;2.55;;;19.30;59.00;;;;;;5011141;28;20095;-71
2022/03/14 06:28:51;;;;;;;9.68;2.60;;;19.30;58.70;;;;;;5014031;28;20550;-72
2022/03/14 06:31:58;;;;;;;6.80;2.28;;;19.40;58.20;;;;;;5006762;28;20050;-72
2022/03/14 06:35:04;;;;;;;4.93;1.90;;;19.40;57.60;;;;;;5009213;28;20082;-71
2022/03/14 06:38:11;;;;;;;8.70;1.50;;;19.40;57.20;;;;;;5007616;28;20026;-73
2022/03/14 06:41:19;;;;;;;5.93;1.90;;;19.40;56.50;;;;;;5009493;28;20064;-73
2022/03/14 06:44:27;;;;;;;10.77;1.50;;;19.40;56.00;;;;;;5011097;28;20029;-71
2022/03/14 06:47:34;;;;;;;6.40;2.00;;;19.40;55.80;;;;;;5012436;28;20469;-74
2022/03/14 06:50:00;;;;;;;3.28;1.70;;;19.40;55.60;;;;;;5002200;28;20063;-74
2022/03/14 06:52:27;;;;;;;8.23;1.98;;;19.40;55.30;;;;;;4999182;28;20768;-71
2022/03/14 06:54:53;;;;;;;12.50;2.17;;;19.50;55.20;;;;;;4999768;28;20792;-73
2022/03/14 06:57:20;;;;;;;14.10;2.38;;;19.50;55.30;;;;;;5001934;28;20497;-75
2022/03/14 06:59:46;;;;;;;9.65;3.25;;;19.50;55.40;;;;;;5000227;28;20045;-71
2022/03/14 07:02:13;;;;;;;9.63;3.25;;;19.50;55.50;;;;;;5002999;28;20017;-76
2022/03/14 07:04:40;;;;;;;17.27;2.28;;;19.60;55.70;;;;;;5000661;28;20445;-71
2022/03/14 07:07:07;;;;;;;14.40;1.92;;;19.50;55.70;;;;;;4999392;28;20023;-75
2022/03/14 07:09:35;;;;;;;35.97;14.50;;;19.60;55.70;;;;;;5004470;28;20181;-74
2022/03/14 07:12:02;;;;;;;36.08;21.02;;;19.60;55.80;;;;;;5003809;28;20677;-76
2022/03/14 07:15:08;;;;;;;23.58;13.35;;;19.70;55.90;;;;;;5008599;28;20483;-78
2022/03/14 07:17:35;;;;;;;13.15;7.50;;;19.70;56.00;;;;;;4998182;28;20050;-74
2022/03/14 07:20:01;;;;;;;13.20;5.07;;;19.80;56.10;;;;;;5007780;28;20480;-78
2022/03/14 07:22:28;;;;;;;11.98;3.13;;;19.80;56.10;;;;;;5003970;28;20210;-79
2022/03/14 07:24:54;;;;;;;12.00;2.53;;;19.90;56.20;;;;;;4999418;28;20034;-74
2022/03/14 07:27:21;;;;;;;19.23;3.92;;;19.90;56.10;;;;;;5004104;28;20057;-73
2022/03/14 07:29:47;;;;;;;17.40;3.13;;;20.00;56.20;;;;;;5000832;28;20386;-78
2022/03/14 07:32:14;;;;;;;10.05;3.88;;;20.00;56.20;;;;;;5000228;28;20033;-75
2022/03/14 07:34:40;;;;;;;6.57;1.77;;;20.00;56.20;;;;;;5000331;28;20057;-78
2022/03/14 07:37:07;;;;;;;11.32;1.65;;;20.00;56.30;;;;;;5009227;28;20017;-78
2022/03/14 07:39:34;;;;;;;9.32;2.72;;;20.00;56.30;;;;;;5002369;28;20071;-77
2022/03/14 07:42:00;;;;;;;12.95;2.00;;;20.10;56.20;;;;;;5004873;28;20025;-74
2022/03/14 07:44:27;;;;;;;8.63;1.77;;;20.10;56.00;;;;;;5024307;28;20025;-78
2022/03/14 07:46:53;;;;;;;12.52;2.40;;;20.10;55.80;;;;;;5002248;28;20113;-71
2022/03/14 07:49:20;;;;;;;19.20;2.03;;;20.10;55.70;;;;;;5008220;28;20377;-78
2022/03/14 07:51:47;;;;;;;12.13;2.33;;;20.10;55.80;;;;;;5003902;28;20041;-76
2022/03/14 07:54:14;;;;;;;18.33;3.30;;;20.10;55.90;;;;;;5007931;28;20472;-78
2022/03/14 07:56:41;;;;;;;12.48;3.20;;;20.10;55.90;;;;;;5006204;28;20056;-78
2022/03/14 07:59:07;;;;;;;20.73;2.63;;;20.20;55.70;;;;;;5007040;28;20041;-80
2022/03/14 08:01:34;;;;;;;17.63;4.93;;;20.20;55.50;;;;;;4999352;28;20358;-79
2022/03/14 08:04:00;;;;;;;13.30;2.50;;;20.20;55.50;;;;;;5005342;28;20605;-77
2022/03/14 08:06:27;;;;;;;5.95;2.33;;;20.20;55.40;;;;;;5006474;28;20042;-80
2022/03/14 08:08:53;;;;;;;13.02;1.92;;;20.30;55.30;;;;;;5007598;28;20328;-73
2022/03/14 08:11:20;;;;;;;17.63;8.50;;;20.30;55.00;;;;;;5006484;28;20037;-75
2022/03/14 08:13:46;;;;;;;14.60;7.47;;;20.30;55.00;;;;;;5006789;28;20629;-77
2022/03/14 08:16:13;;;;;;;12.85;4.70;;;20.40;54.90;;;;;;5004442;28;20170;-79
2022/03/14 08:18:40;;;;;;;9.35;3.05;;;20.40;54.90;;;;;;5005162;28;20097;-75
2022/03/14 08:21:06;;;;;;;6.85;2.42;;;20.40;54.60;;;;;;5008024;28;20029;-78
2022/03/14 08:23:35;;;;;;;9.70;1.90;;;20.40;54.40;;;;;;5004304;28;20022;-77
2022/03/14 08:26:02;;;;;;;5.68;1.63;;;20.50;54.00;;;;;;5008149;28;20028;-77
2022/03/14 08:28:28;;;;;;;5.30;1.30;;;20.50;54.00;;;;;;5008312;28;20072;-73
2022/03/14 08:30:56;;;;;;;21.98;12.73;;;20.60;54.00;;;;;;5006628;28;20433;-73
2022/03/14 08:33:24;;;;;;;17.83;9.93;;;20.60;53.80;;;;;;5006441;28;20054;-77
2022/03/14 08:35:51;;;;;;;12.25;6.15;;;20.70;54.40;;;;;;5007136;28;20060;-76
2022/03/14 08:38:17;;;;;;;10.05;3.42;;;20.80;53.60;;;;;;5016562;28;20018;-79
2022/03/14 08:40:44;;;;;;;4.00;2.25;;;20.70;52.80;;;;;;5001577;28;20026;-74
2022/03/14 08:43:11;;;;;;;8.98;1.58;;;20.80;52.50;;;;;;5003168;28;20026;-71
2022/03/14 08:45:43;;;;;;;3.75;1.33;;;20.90;52.40;;;;;;5002329;28;20032;-74
2022/03/14 08:48:14;;;;;;;5.63;1.20;;;20.90;52.30;;;;;;5008772;28;20037;-76
2022/03/14 08:50:43;;;;;;;7.57;1.02;;;21.00;52.10;;;;;;5000330;28;20064;-72
2022/03/14 08:53:09;;;;;;;12.10;1.33;;;20.90;51.40;;;;;;5005244;28;20026;-71
2022/03/14 08:55:36;;;;;;;2.80;0.80;;;21.00;52.10;;;;;;5009416;28;20034;-72
2022/03/14 08:58:03;;;;;;;3.70;0.90;;;21.10;53.00;;;;;;5007098;28;20080;-70
2022/03/14 09:00:30;;;;;;;3.05;1.58;;;21.10;52.20;;;;;;5003501;28;20025;-72
2022/03/14 09:02:57;;;;;;;7.05;1.05;;;21.20;52.20;;;;;;5007527;28;20018;-71
2022/03/14 09:05:23;;;;;;;3.22;1.20;;;21.20;52.90;;;;;;5000633;28;20041;-78
2022/03/14 09:07:51;;;;;;;6.38;1.95;;;21.30;52.30;;;;;;5012893;28;20378;-74
2022/03/14 09:10:17;;;;;;;5.65;0.98;;;21.40;52.10;;;;;;5004353;28;20374;-77
2022/03/14 09:12:44;;;;;;;3.70;0.95;;;21.40;51.80;;;;;;5005611;28;20026;-71
2022/03/14 09:15:12;;;;;;;4.45;1.83;;;21.40;52.00;;;;;;5005815;28;20050;-76
2022/03/14 09:17:57;;;;;;;2.88;0.80;;;21.50;52.30;;;;;;5006728;28;20033;-74
2022/03/14 09:20:24;;;;;;;3.83;0.65;;;21.60;52.40;;;;;;5003819;28;20040;-73
2022/03/14 09:22:51;;;;;;;6.88;1.10;;;21.70;52.60;;;;;;4999267;28;20037;-73
2022/03/14 09:25:19;;;;;;;8.73;1.50;;;21.80;52.70;;;;;;5005755;28;20114;-78
2022/03/14 09:27:46;;;;;;;8.77;1.38;;;21.80;52.70;;;;;;4997061;28;20072;-77
2022/03/14 09:30:13;;;;;;;6.53;1.55;;;21.80;52.10;;;;;;5007990;28;20029;-73
2022/03/14 09:32:41;;;;;;;5.90;1.10;;;21.80;51.90;;;;;;5000888;28;20068;-76
2022/03/14 09:35:09;;;;;;;6.22;1.15;;;21.80;51.20;;;;;;5000993;28;20141;-77
2022/03/14 09:37:39;;;;;;;4.95;1.15;;;21.80;50.70;;;;;;5003164;28;20080;-70
2022/03/14 09:40:10;;;;;;;3.00;1.00;;;21.80;50.00;;;;;;5004955;28;20030;-74
2022/03/14 09:42:39;;;;;;;4.15;1.13;;;21.80;49.60;;;;;;5000267;28;20655;-70
2022/03/14 09:45:07;;;;;;;5.32;1.02;;;21.80;49.50;;;;;;5001506;28;20045;-70
2022/03/14 09:47:39;;;;;;;4.97;0.90;;;21.80;49.30;;;;;;5004807;28;20068;-73
2022/03/14 09:50:11;;;;;;;6.50;1.83;;;21.90;49.50;;;;;;5008845;28;21869;-78
2022/03/14 09:52:40;;;;;;;4.07;1.02;;;22.00;49.60;;;;;;5012762;28;20029;-73
2022/03/14 09:55:09;;;;;;;3.97;0.80;;;22.00;49.30;;;;;;5009033;28;20167;-70
2022/03/14 09:57:38;;;;;;;5.38;1.08;;;22.10;49.10;;;;;;5012744;28;20081;-74
2022/03/14 10:00:13;;;;;;;3.30;1.27;;;22.10;49.10;;;;;;5006892;28;20029;-73
2022/03/14 10:02:39;;;;;;;;;;;22.20;49.10;;;;;;5006477;28;20500;-70
2022/03/14 10:05:10;;;;;;;8.02;0.88;;;22.20;48.80;;;;;;5015746;28;19905;-72
2022/03/14 10:07:37;;;;;;;4.05;1.02;;;22.30;48.70;;;;;;5005246;28;20029;-79
2022/03/14 10:10:05;;;;;;;9.10;1.70;;;22.30;48.40;;;;;;5010733;28;20013;-72
2022/03/14 10:12:33;;;;;;;3.90;1.23;;;22.40;48.40;;;;;;5010398;28;20033;-73
2022/03/14 10:15:04;;;;;;;5.50;1.00;;;22.40;47.60;;;;;;5010393;28;20037;-75
2022/03/14 10:17:32;;;;;;;7.90;0.90;;;22.50;47.40;;;;;;5005731;28;20109;-71
2022/03/14 10:20:06;;;;;;;9.43;1.20;;;22.60;47.50;;;;;;5011548;28;20088;-70
2022/03/14 10:22:41;;;;;;;7.50;1.08;;;22.60;47.70;;;;;;5012471;28;20022;-71
2022/03/14 10:25:48;;;;;;;3.80;0.63;;;22.70;47.80;;;;;;5013168;28;20365;-73
2022/03/14 10:28:54;;;;;;;4.00;0.75;;;22.80;47.40;;;;;;5008570;28;20462;-71
2022/03/14 10:31:56;;;;;;;7.60;1.20;;;22.80;48.00;;;;;;5021785;28;20028;-69
2022/03/14 10:34:23;;;;;;;14.68;1.85;;;22.90;47.00;;;;;;5002007;28;20072;-73
2022/03/14 10:36:51;;;;;;;5.78;1.00;;;22.90;47.30;;;;;;5007851;28;20057;-72
2022/03/14 10:39:21;;;;;;;4.00;0.70;;;22.90;47.20;;;;;;5007608;28;20038;-77
2022/03/14 10:42:10;;;;;;;3.40;0.73;;;22.90;47.30;;;;;;5009641;28;20030;-74
2022/03/14 10:44:41;;;;;;;2.60;1.13;;;23.00;47.40;;;;;;5004919;28;20030;-74
2022/03/14 10:47:10;;;;;;;4.82;0.80;;;23.00;47.80;;;;;;5014611;28;20097;-79
2022/03/14 10:49:39;;;;;;;6.00;0.75;;;23.00;48.40;;;;;;5009239;28;20026;-76
2022/03/14 10:52:09;;;;;;;2.55;0.80;;;23.00;48.30;;;;;;5008432;28;20030;-77
2022/03/14 10:54:38;;;;;;;1.77;0.70;;;23.00;48.10;;;;;;5009097;28;20034;-73
2022/03/14 10:57:07;;;;;;;8.85;1.02;;;23.00;48.50;;;;;;5013164;28;20018;-77
2022/03/14 10:59:43;;;;;;;5.15;1.02;;;23.10;48.70;;;;;;5008129;28;20033;-76
2022/03/14 11:02:20;;;;;;;3.20;0.75;;;23.10;49.00;;;;;;5004024;28;20072;-74
2022/03/14 11:04:52;;;;;;;7.43;1.50;;;23.20;49.50;;;;;;5006661;28;20061;-82
2022/03/14 11:07:20;;;;;;;5.07;1.23;;;23.20;49.40;;;;;;5006071;28;20034;-79
2022/03/14 11:09:53;;;;;;;3.38;0.80;;;23.30;48.90;;;;;;5016785;28;20531;-80
2022/03/14 11:12:23;;;;;;;9.20;1.00;;;23.30;48.70;;;;;;5007964;28;20100;-78
2022/03/14 11:15:01;;;;;;;4.72;1.60;;;23.40;48.80;;;;;;5007525;28;20042;-76
2022/03/14 11:17:29;;;;;;;2.35;0.90;;;23.40;48.80;;;;;;5006223;28;20499;-74
2022/03/14 11:19:58;;;;;;;2.15;0.80;;;23.40;48.70;;;;;;5013688;28;20014;-78
2022/03/14 11:22:27;;;;;;;4.75;1.70;;;23.50;48.90;;;;;;5007159;28;20034;-78
2022/03/14 11:24:55;;;;;;;1.60;0.82;;;23.50;48.60;;;;;;5005080;28;20477;-77
2022/03/14 11:27:27;;;;;;;2.92;1.05;;;23.50;48.20;;;;;;5000782;28;20559;-76
2022/03/14 11:30:01;;;;;;;4.65;0.70;;;23.60;48.00;;;;;;5014685;28;20080;-75
2022/03/14 11:32:28;;;;;;;2.10;0.52;;;23.60;48.00;;;;;;5007638;28;20022;-77
2022/03/14 11:34:55;;;;;;;5.80;1.02;;;23.60;47.80;;;;;;5006813;28;21003;-76
2022/03/14 11:37:22;;;;;;;3.35;0.85;;;23.70;47.30;;;;;;5004387;28;20140;-76
2022/03/14 11:39:49;;;;;;;4.75;0.57;;;23.70;47.20;;;;;;5007641;28;20030;-77
2022/03/14 11:42:16;;;;;;;3.38;0.60;;;23.80;46.90;;;;;;5005612;28;20030;-77
2022/03/14 11:44:47;;;;;;;6.88;0.57;;;23.80;46.80;;;;;;5004723;28;20018;-75
2022/03/14 11:47:18;;;;;;;5.70;0.90;;;23.90;46.90;;;;;;5000367;28;20072;-74
2022/03/14 11:49:46;;;;;;;4.70;1.02;;;24.00;46.20;;;;;;5004074;28;20031;-76
2022/03/14 11:52:21;;;;;;;2.53;0.93;;;24.00;46.00;;;;;;5009843;28;20064;-72
2022/03/14 11:54:53;;;;;;;1.88;1.15;;;24.00;45.70;;;;;;5004611;28;20038;-72
2022/03/14 11:57:41;;;;;;;2.22;0.70;;;24.10;46.00;;;;;;5004134;28;20026;-70
2022/03/14 12:00:27;;;;;;;3.13;0.73;;;24.10;44.70;;;;;;5008674;28;20030;-71
2022/03/14 12:03:05;;;;;;;2.92;0.80;;;24.20;44.40;;;;;;4999899;28;20034;-70
2022/03/14 12:05:31;;;;;;;1.70;0.57;;;24.20;44.30;;;;;;5000632;28;20029;-71
2022/03/14 12:08:28;;;;;;;1.80;0.85;;;24.20;44.00;;;;;;5003730;28;20045;-71
2022/03/14 12:10:54;;;;;;;4.72;0.98;;;24.30;43.80;;;;;;5003561;28;20543;-70
2022/03/14 12:13:43;;;;;;;1.63;0.60;;;24.30;43.80;;;;;;5011802;28;20064;-70
2022/03/14 12:16:34;;;;;;;5.10;1.38;;;24.40;43.70;;;;;;5005129;28;20440;-73
2022/03/14 12:19:00;;;;;;;4.25;0.85;;;24.40;43.60;;;;;;5005552;28;20040;-71
2022/03/14 12:22:18;;;;;;;3.97;0.75;;;24.40;43.10;;;;;;4995171;28;20030;-77
2022/03/14 12:24:48;;;;;;;3.35;0.50;;;24.40;43.30;;;;;;4981589;28;20030;-71
2022/03/14 12:27:22;;;;;;;1.30;0.65;;;24.40;43.10;;;;;;5000475;28;20072;-71
2022/03/14 12:29:51;;;;;;;4.53;0.93;;;24.40;42.80;;;;;;5001876;28;20034;-71
2022/03/14 12:32:26;;;;;;;2.35;1.25;;;24.40;43.20;;;;;;5000173;28;20024;-71
2022/03/14 12:35:07;;;;;;;3.00;0.73;;;24.30;43.30;;;;;;4994615;28;20137;-72
2022/03/14 12:37:52;;;;;;;2.83;1.08;;;24.30;42.90;;;;;;5008149;28;20465;-69
2022/03/14 12:40:21;;;;;;;2.45;0.65;;;24.30;43.00;;;;;;5000863;28;20034;-74
2022/03/14 12:42:53;;;;;;;2.17;0.65;;;24.30;42.80;;;;;;4999623;28;20527;-70
2022/03/14 12:45:31;;;;;;;2.05;0.70;;;24.20;42.60;;;;;;4999764;28;20040;-72
2022/03/14 12:48:06;;;;;;;3.38;0.98;;;24.30;42.90;;;;;;5000487;28;20030;-71
2022/03/14 12:50:50;;;;;;;1.85;0.90;;;24.20;42.90;;;;;;4995472;28;20018;-70
2022/03/14 12:53:38;;;;;;;2.08;0.65;;;24.20;42.90;;;;;;4993814;28;20436;-70
2022/03/14 12:56:30;;;;;;;3.10;0.95;;;24.20;42.90;;;;;;4992927;28;20494;-71
2022/03/14 12:59:01;;;;;;;5.93;1.08;;;24.20;42.90;;;;;;4997760;28;20030;-72
2022/03/14 13:01:29;;;;;;;2.25;0.73;;;24.20;43.20;;;;;;5000025;28;20029;-71
2022/03/14 13:03:56;;;;;;;2.30;0.70;;;24.20;43.50;;;;;;4998421;28;20026;-76
2022/03/14 13:06:38;;;;;;;5.18;0.80;;;24.30;43.30;;;;;;4996831;28;21172;-71
2022/03/14 13:09:05;;;;;;;2.30;0.68;;;24.30;43.60;;;;;;5000124;28;20031;-72
2022/03/14 13:11:33;;;;;;;0.55;0.50;;;24.30;43.60;;;;;;4997832;28;20045;-76
2022/03/14 13:14:09;;;;;;;5.45;0.80;;;24.20;43.40;;;;;;5005159;28;20387;-76
2022/03/14 13:16:38;;;;;;;2.70;0.70;;;24.20;43.60;;;;;;5005076;28;20057;-71
2022/03/14 13:19:13;;;;;;;4.28;0.80;;;24.10;44.00;;;;;;5006369;28;20021;-72
2022/03/14 13:21:40;;;;;;;2.03;0.50;;;24.10;44.50;;;;;;5005358;28;20061;-70
2022/03/14 13:24:06;;;;;;;4.15;0.55;;;24.10;44.60;;;;;;5011155;28;20018;-72
2022/03/14 13:26:35;;;;;;;2.15;1.00;;;24.00;45.10;;;;;;5005658;28;20030;-70
2022/03/14 13:29:02;;;;;;;3.13;0.70;;;24.00;45.10;;;;;;5013641;28;20412;-73
2022/03/14 13:31:35;;;;;;;1.60;0.80;;;24.00;45.40;;;;;;5005431;28;20057;-75
2022/03/14 13:34:05;;;;;;;3.15;0.80;;;24.00;45.60;;;;;;5005362;28;20068;-71
2022/03/14 13:36:38;;;;;;;1.65;0.65;;;24.00;45.20;;;;;;5002669;28;20046;-74
2022/03/14 13:39:06;;;;;;;5.53;0.80;;;24.00;44.90;;;;;;5000566;28;20064;-76
2022/03/14 13:41:33;;;;;;;6.03;1.08;;;24.00;44.90;;;;;;5000426;28;20026;-71
2022/03/14 13:44:03;;;;;;;4.30;0.98;;;24.00;45.00;;;;;;5004122;28;20022;-75
2022/03/14 13:46:43;;;;;;;3.70;0.70;;;24.00;44.80;;;;;;5004648;28;20022;-75
2022/03/14 13:49:13;;;;;;;1.65;0.70;;;24.00;44.50;;;;;;5010035;28;20030;-74
2022/03/14 13:51:49;;;;;;;1.85;0.60;;;24.00;44.70;;;;;;5010454;28;20544;-72
2022/03/14 13:54:22;;;;;;;1.08;0.60;;;24.00;44.90;;;;;;5002808;28;20030;-72